Getzville, New York
Current Conditions -  °F | °C
As of 8:54 AM on Monday 20 Oct 2014 (Local Time) from KBUF Reporting Station
Broken Clouds Broken Clouds  
Wind Chill: 42°   Ceiling: 10000
Heat Index: 46°   Visibility: 10mi
Dew Point: 35°   Wind: 8mph
Humidity: 66%   Direction: 190°S
Pressure: 29.93"   Gusts: NA
Location:  43.02°N, 78.77°W
Report Text: KBUF 201254Z 19007KT 10SM FEW033 BKN100 BKN130 BKN200 BKN260 08/02 A2993 RMK AO2 SLP138 VIRGA DSNT SW-NW-N T00780017
Loading
Personal Weather Stations






























Interactive Weather Map
Tropical Storm Tracking
New forecast layout! Learn more

10-Day Weather Forecast

Advertisements
Track Severe Weather on mobile